Time;durP1;ratioP1;P1;durP2;ratioP2;P2;SDS_P1;SDS_P2;PMS_P1;PMS_P2;Temp;Humidity;BMP_temperature;BMP_pressure;BME280_temperature;BME280_humidity;BME280_pressure;Samples;Min_cycle;Max_cycle;Signal;HPM_P1;HPM_P2
2023/08/08 00:00:04;;;;;;;1.30;0.90;;;;;;;14.96;65.79;97315.88;4902866;28;20291;-80
2023/08/08 00:02:29;;;;;;;2.17;0.93;;;;;;;14.95;65.93;97319.53;4887608;28;20218;-79
2023/08/08 00:04:55;;;;;;;0.80;0.68;;;;;;;14.92;65.98;97322.69;4905235;28;20190;-79
2023/08/08 00:07:20;;;;;;;1.10;1.00;;;;;;;14.90;66.55;97319.56;4907353;28;20262;-79
2023/08/08 00:09:45;;;;;;;1.40;0.77;;;;;;;14.76;66.19;97304.41;4918714;28;20587;-80
2023/08/08 00:12:11;;;;;;;1.30;0.88;;;;;;;14.88;66.22;97319.06;4891239;28;20711;-80
2023/08/08 00:14:36;;;;;;;0.77;0.77;;;;;;;14.85;67.60;97312.50;4872876;28;20292;-80
2023/08/08 00:17:02;;;;;;;1.63;0.90;;;;;;;14.81;67.10;97318.56;4909480;28;20213;-79
2023/08/08 00:19:27;;;;;;;0.90;0.90;;;;;;;14.75;66.37;97305.47;4904933;28;20136;-79
2023/08/08 00:21:52;;;;;;;1.60;0.98;;;;;;;14.71;67.07;97317.53;4870666;28;20225;-79
2023/08/08 00:24:18;;;;;;;1.58;1.10;;;;;;;14.62;66.71;97324.38;4890455;28;20360;-79
2023/08/08 00:26:43;;;;;;;1.48;0.77;;;;;;;14.47;66.51;97319.16;4901554;28;20286;-80
2023/08/08 00:29:09;;;;;;;1.67;0.82;;;;;;;14.55;67.46;97321.22;4905053;28;20229;-79
2023/08/08 00:31:34;;;;;;;1.33;1.10;;;;;;;14.46;67.21;97296.63;4884309;28;20543;-80
2023/08/08 00:33:59;;;;;;;1.63;1.33;;;;;;;14.56;67.67;97307.84;4872314;28;20237;-80
2023/08/08 00:36:25;;;;;;;1.15;0.90;;;;;;;14.58;67.36;97315.44;4902779;28;20211;-79
2023/08/08 00:38:50;;;;;;;1.10;0.82;;;;;;;14.55;67.90;97316.78;4891517;28;20198;-80
2023/08/08 00:41:15;;;;;;;1.10;0.80;;;;;;;14.45;68.52;97306.31;4902591;28;20372;-80
2023/08/08 00:43:43;;;;;;;4.88;1.17;;;;;;;14.51;67.81;97309.69;4878866;28;20653;-79
2023/08/08 00:46:08;;;;;;;2.10;1.13;;;;;;;14.57;68.23;97319.91;4897070;28;20285;-79
2023/08/08 00:48:34;;;;;;;1.33;1.20;;;;;;;14.56;67.95;97304.44;4915536;28;20593;-79
2023/08/08 00:50:59;;;;;;;1.63;1.17;;;;;;;14.54;68.36;97309.16;4899474;28;20637;-79
2023/08/08 00:53:26;;;;;;;1.00;0.80;;;;;;;14.56;67.52;97307.06;4902833;28;20268;-80
2023/08/08 00:55:52;;;;;;;2.10;1.08;;;;;;;14.66;68.60;97303.66;4888783;28;20368;-80
2023/08/08 00:58:17;;;;;;;1.00;1.00;;;;;;;14.67;68.37;97313.88;4904923;28;20278;-79
2023/08/08 01:00:43;;;;;;;1.55;0.88;;;;;;;14.70;67.95;97317.78;4906767;28;20046;-80
2023/08/08 01:03:08;;;;;;;1.10;1.00;;;;;;;14.62;67.88;97313.91;4972100;23;20289;-89
2023/08/08 01:05:38;;;;;;;1.50;1.13;;;;;;;14.71;68.32;97311.50;4922199;28;20342;-89
2023/08/08 01:08:05;;;;;;;2.08;1.30;;;;;;;14.61;67.97;97305.22;4919732;28;20291;-89
2023/08/08 01:10:40;;;;;;;2.60;1.25;;;;;;;14.68;68.24;97302.34;4912108;28;20182;-89
2023/08/08 01:13:26;;;;;;;0.88;0.80;;;;;;;14.67;68.52;97298.16;4926487;28;20243;-89
2023/08/08 01:15:53;;;;;;;1.88;1.50;;;;;;;14.68;68.26;97304.94;4936101;28;20265;-89
2023/08/08 01:18:19;;;;;;;3.22;1.17;;;;;;;14.62;68.19;97298.19;4931986;28;20254;-89
2023/08/08 01:20:45;;;;;;;1.73;1.20;;;;;;;14.52;68.12;97280.63;4925854;28;20153;-89
2023/08/08 01:23:23;;;;;;;2.40;1.70;;;;;;;14.62;68.72;97298.19;4938007;28;20106;-88
2023/08/08 01:25:49;;;;;;;1.75;1.10;;;;;;;14.59;67.71;97291.63;4915635;28;20166;-89
2023/08/08 01:28:14;;;;;;;2.22;1.17;;;;;;;14.58;68.49;97287.44;4943615;28;20251;-89
2023/08/08 01:30:40;;;;;;;1.73;1.10;;;;;;;14.48;68.31;97271.72;4915387;28;20701;-89
2023/08/08 01:33:06;;;;;;;1.73;1.27;;;;;;;14.55;68.77;97280.09;4910570;28;20216;-89
2023/08/08 01:35:36;;;;;;;1.63;0.98;;;;;;;14.65;68.43;97289.78;4918913;28;20203;-88
2023/08/08 01:38:10;;;;;;;2.15;1.45;;;;;;;14.67;69.26;97286.88;4911420;28;20175;-89
2023/08/08 01:40:36;;;;;;;1.42;1.08;;;;;;;14.67;68.81;97285.06;4906309;28;20749;-88
2023/08/08 01:43:04;;;;;;;1.38;1.25;;;;;;;14.65;68.77;97287.16;4911294;28;20165;-89
2023/08/08 01:45:30;;;;;;;2.10;1.20;;;;;;;14.75;68.69;97299.44;4914060;28;20165;-88
2023/08/08 01:47:55;;;;;;;1.60;1.17;;;;;;;14.67;68.62;97292.91;4938961;28;20779;-89
2023/08/08 01:50:21;;;;;;;2.03;1.17;;;;;;;14.63;69.18;97278.00;4903013;28;20379;-89
2023/08/08 01:52:47;;;;;;;1.73;1.20;;;;;;;14.80;68.93;97309.91;4907591;28;20101;-89
2023/08/08 01:55:12;;;;;;;1.30;1.20;;;;;;;14.86;68.72;97308.06;4938882;28;20646;-88
2023/08/08 01:57:38;;;;;;;2.22;1.30;;;;;;;14.64;68.46;97262.00;4920934;28;20272;-88
2023/08/08 02:00:05;;;;;;;2.95;1.40;;;;;;;14.95;68.42;97304.59;4925263;28;20196;-88
2023/08/08 02:02:31;;;;;;;1.52;1.15;;;;;;;14.95;68.54;97298.56;4905251;28;20579;-89
2023/08/08 02:04:56;;;;;;;1.85;1.23;;;;;;;14.93;68.56;97292.81;4938005;28;20217;-88
2023/08/08 02:07:21;;;;;;;1.50;1.20;;;;;;;14.92;68.43;97294.63;4904191;28;20186;-89
2023/08/08 02:09:50;;;;;;;2.42;1.33;;;;;;;14.94;68.69;97297.78;4899063;28;20686;-89
2023/08/08 02:12:16;;;;;;;2.10;1.60;;;;;;;14.90;67.86;97302.00;4897278;28;20197;-88
2023/08/08 02:14:41;;;;;;;1.20;1.10;;;;;;;14.85;68.43;97304.63;4892299;28;20304;-89
2023/08/08 02:17:07;;;;;;;1.85;1.20;;;;;;;14.87;68.38;97297.28;4900967;28;20171;-89
2023/08/08 02:19:32;;;;;;;3.72;1.50;;;;;;;14.86;68.42;97295.72;4910434;28;20387;-88
2023/08/08 02:21:57;;;;;;;3.78;1.42;;;;;;;14.85;68.29;97301.25;4900421;28;20709;-88
2023/08/08 02:24:23;;;;;;;1.38;1.27;;;;;;;14.85;68.46;97301.25;4917968;28;20798;-87
2023/08/08 02:26:48;;;;;;;1.60;1.30;;;;;;;14.86;69.03;97303.59;4898886;28;20167;-88
2023/08/08 02:29:13;;;;;;;2.58;1.50;;;;;;;14.65;69.08;97279.31;4913628;28;20197;-88
2023/08/08 02:31:39;;;;;;;2.55;1.35;;;;;;;14.72;69.20;97285.03;4897573;28;20110;-88
2023/08/08 02:34:04;;;;;;;2.65;1.40;;;;;;;14.69;68.93;97275.09;4902723;28;20162;-88
2023/08/08 02:36:30;;;;;;;1.55;1.30;;;;;;;14.83;69.07;97293.63;4919529;28;20353;-88
2023/08/08 02:38:55;;;;;;;1.73;1.27;;;;;;;14.77;68.71;97292.88;4933834;28;20238;-89
2023/08/08 02:41:20;;;;;;;1.27;1.15;;;;;;;14.74;68.38;97296.03;4920660;28;20626;-88
2023/08/08 02:43:46;;;;;;;1.27;1.15;;;;;;;14.70;68.36;97286.34;4914446;28;20216;-88
2023/08/08 02:46:11;;;;;;;1.42;1.30;;;;;;;14.70;68.85;97278.47;4914992;28;20277;-88
2023/08/08 02:48:37;;;;;;;1.58;0.93;;;;;;;14.65;68.81;97262.78;4902165;28;20636;-88
2023/08/08 02:51:02;;;;;;;1.73;1.02;;;;;;;14.65;69.13;97263.59;4903106;28;20228;-88
2023/08/08 02:53:27;;;;;;;1.75;1.58;;;;;;;14.69;69.06;97279.56;4913335;28;20358;-88
2023/08/08 02:55:53;;;;;;;1.52;1.42;;;;;;;14.47;69.47;97261.50;4896637;28;20115;-89
2023/08/08 02:58:18;;;;;;;1.92;1.20;;;;;;;14.56;69.19;97270.38;4917052;28;20442;-89
2023/08/08 03:00:44;;;;;;;1.60;1.50;;;;;;;14.48;68.96;97292.69;4916888;28;20189;-88
2023/08/08 03:03:09;;;;;;;1.40;1.30;;;;;;;14.38;69.24;97280.41;4894964;28;20650;-89
2023/08/08 03:05:35;;;;;;;3.78;1.48;;;;;;;14.41;68.63;97295.59;4916847;28;20253;-88
2023/08/08 03:08:00;;;;;;;2.00;1.75;;;;;;;14.29;68.66;97274.13;4902936;28;20210;-89
2023/08/08 03:10:26;;;;;;;1.23;1.13;;;;;;;14.32;68.81;97289.31;4898209;28;20175;-88
2023/08/08 03:12:51;;;;;;;1.98;1.40;;;;;;;14.33;68.60;97292.72;4916390;28;20253;-89
2023/08/08 03:15:16;;;;;;;4.55;1.35;;;;;;;14.21;69.10;97282.53;4909835;28;20299;-89
2023/08/08 03:17:42;;;;;;;1.67;1.58;;;;;;;14.23;69.29;97290.91;4918091;28;20193;-88
2023/08/08 03:20:08;;;;;;;2.30;1.20;;;;;;;14.20;68.79;97275.72;4917189;28;20250;-89
2023/08/08 03:22:33;;;;;;;1.38;1.10;;;;;;;14.21;68.96;97279.91;4931299;28;20292;-89
2023/08/08 03:24:59;;;;;;;1.58;1.30;;;;;;;14.10;69.12;97273.09;4903341;28;20397;-88
2023/08/08 03:27:25;;;;;;;2.17;1.50;;;;;;;14.03;69.01;97268.94;4905503;28;20216;-89
2023/08/08 03:29:50;;;;;;;2.22;1.40;;;;;;;14.09;69.96;97279.41;4896432;28;20609;-89
2023/08/08 03:32:16;;;;;;;1.42;1.33;;;;;;;13.90;69.52;97251.16;4916643;28;20208;-89
2023/08/08 03:34:41;;;;;;;2.55;1.45;;;;;;;14.03;69.29;97271.56;4893863;28;20331;-89
2023/08/08 03:37:06;;;;;;;2.58;1.70;;;;;;;14.03;69.54;97274.19;4909967;28;20687;-89
2023/08/08 03:39:32;;;;;;;1.52;1.42;;;;;;;14.04;70.06;97272.34;4901325;28;20597;-89
2023/08/08 03:41:57;;;;;;;2.15;1.42;;;;;;;13.91;69.59;97257.94;4905036;28;20275;-89
2023/08/08 03:44:22;;;;;;;2.00;1.20;;;;;;;13.87;69.36;97256.91;4898178;28;20150;-88
2023/08/08 03:46:49;;;;;;;3.17;1.15;;;;;;;13.78;69.19;97250.66;4899090;28;20205;-88
2023/08/08 03:49:15;;;;;;;2.45;1.40;;;;;;;13.75;69.20;97257.19;4914123;28;20171;-88
2023/08/08 03:51:40;;;;;;;2.08;1.33;;;;;;;13.81;69.58;97265.81;4933667;28;20308;-89
2023/08/08 03:54:05;;;;;;;1.90;1.40;;;;;;;13.67;69.82;97247.22;4917749;28;20194;-89
2023/08/08 03:56:31;;;;;;;1.85;1.45;;;;;;;13.71;70.26;97257.94;4901643;28;20134;-89
2023/08/08 03:58:57;;;;;;;2.00;1.45;;;;;;;13.79;69.07;97262.66;4928440;28;20135;-88
2023/08/08 04:01:23;;;;;;;2.58;1.42;;;;;;;13.73;69.92;97263.72;4917288;28;20126;-88
2023/08/08 04:03:48;;;;;;;1.95;1.70;;;;;;;13.76;70.25;97268.41;4914152;28;20268;-88
2023/08/08 04:06:13;;;;;;;2.40;2.00;;;;;;;13.68;70.25;97269.75;4926596;28;20552;-88
2023/08/08 04:08:39;;;;;;;2.10;1.58;;;;;;;13.62;70.04;97263.72;4911747;28;20335;-88
2023/08/08 04:11:04;;;;;;;2.47;1.55;;;;;;;13.57;69.44;97265.53;4903083;28;20264;-88
2023/08/08 04:13:29;;;;;;;3.08;1.48;;;;;;;13.45;69.75;97257.94;4937197;28;20216;-88
2023/08/08 04:15:55;;;;;;;1.98;1.50;;;;;;;13.39;69.81;97253.78;4911983;28;20159;-89
2023/08/08 04:18:20;;;;;;;2.75;1.65;;;;;;;13.36;69.96;97259.50;4906922;28;20207;-88
2023/08/08 04:20:46;;;;;;;2.95;1.40;;;;;;;13.54;70.56;97281.75;4934451;28;20207;-88
2023/08/08 04:23:12;;;;;;;3.08;1.70;;;;;;;13.49;70.36;97283.31;4932319;28;20264;-88
2023/08/08 04:25:38;;;;;;;2.13;1.75;;;;;;;13.49;70.22;97283.31;4931145;28;20276;-88
2023/08/08 04:28:03;;;;;;;2.22;1.50;;;;;;;13.48;69.71;97281.75;4914354;28;20281;-88
2023/08/08 04:30:29;;;;;;;3.05;2.05;;;;;;;13.50;69.31;97278.88;4918324;28;20177;-88
2023/08/08 04:32:54;;;;;;;2.20;1.55;;;;;;;13.44;70.06;97272.09;4926904;28;20194;-88
2023/08/08 04:35:20;;;;;;;3.42;1.60;;;;;;;13.60;69.70;97291.19;4935841;28;20662;-88
2023/08/08 04:37:45;;;;;;;1.63;1.38;;;;;;;13.60;70.66;97280.72;4902492;28;20206;-88
2023/08/08 04:40:11;;;;;;;2.20;1.33;;;;;;;13.65;69.82;97286.72;4934795;28;20276;-88
2023/08/08 04:42:36;;;;;;;2.85;2.17;;;;;;;13.67;70.10;97282.06;4928727;28;20190;-88
2023/08/08 04:45:02;;;;;;;1.70;1.60;;;;;;;13.57;70.63;97268.97;4926300;28;20209;-89
2023/08/08 04:47:27;;;;;;;2.80;1.40;;;;;;;13.67;70.82;97282.06;4932243;28;20193;-88
2023/08/08 04:49:53;;;;;;;3.83;1.60;;;;;;;13.64;70.19;97266.88;4932245;28;20264;-87
2023/08/08 04:52:18;;;;;;;2.72;1.63;;;;;;;13.66;70.82;97270.00;4925554;28;20190;-88
2023/08/08 04:54:44;;;;;;;3.25;1.83;;;;;;;13.74;71.33;97267.91;4947908;28;20197;-88
2023/08/08 04:57:09;;;;;;;2.45;1.83;;;;;;;13.75;70.79;97269.47;4921903;28;20285;-88
2023/08/08 04:59:35;;;;;;;2.70;1.92;;;;;;;13.70;70.74;97256.41;4909218;28;20186;-88
2023/08/08 05:02:00;;;;;;;2.75;1.80;;;;;;;13.89;71.16;97270.50;4929116;28;20190;-88
2023/08/08 05:04:26;;;;;;;1.45;1.30;;;;;;;14.03;71.54;97287.28;4921845;28;20165;-89
2023/08/08 05:06:51;;;;;;;1.65;1.52;;;;;;;14.11;71.27;97285.94;4911335;28;20197;-88
2023/08/08 05:09:16;;;;;;;2.60;1.95;;;;;;;14.13;71.04;97280.44;4930048;28;20098;-88
2023/08/08 05:11:42;;;;;;;2.97;2.00;;;;;;;14.27;70.95;97288.53;4928682;28;20154;-88
2023/08/08 05:14:07;;;;;;;1.90;1.67;;;;;;;14.22;71.12;97277.03;4913060;28;20205;-88
2023/08/08 05:16:32;;;;;;;3.35;1.80;;;;;;;14.21;70.46;97261.59;4910569;28;20131;-88
2023/08/08 05:18:58;;;;;;;3.03;1.77;;;;;;;14.30;70.88;97269.69;4915584;28;20307;-87
2023/08/08 05:21:24;;;;;;;2.95;2.00;;;;;;;14.48;70.67;97284.03;5002157;23;20227;-88
2023/08/08 05:23:49;;;;;;;6.07;2.20;;;;;;;14.49;70.83;97275.13;4896426;28;20030;-87
2023/08/08 05:29:01;;;;;;;2.83;2.42;;;;;;;14.67;71.06;97271.16;4971375;28;20315;-88
2023/08/08 05:31:26;;;;;;;3.45;1.92;;;;;;;14.75;70.17;97274.03;4949175;28;20282;-88
2023/08/08 05:33:52;;;;;;;3.25;2.00;;;;;;;14.68;70.25;97257.78;4935972;28;20278;-87
2023/08/08 05:36:17;;;;;;;2.92;1.80;;;;;;;14.84;70.09;97270.81;4950614;28;20345;-88
2023/08/08 05:38:42;;;;;;;2.22;1.80;;;;;;;14.94;69.95;97283.88;4935593;28;20195;-88
2023/08/08 05:41:08;;;;;;;1.88;1.70;;;;;;;15.00;69.28;97279.41;4938689;28;20105;-88
2023/08/08 05:43:33;;;;;;;1.90;1.48;;;;;;;15.09;69.00;97286.44;4971558;28;20235;-87
2023/08/08 05:45:59;;;;;;;3.63;2.03;;;;;;;15.10;68.98;97274.13;4936520;28;20231;-87
2023/08/08 05:48:24;;;;;;;3.10;2.03;;;;;;;15.06;68.46;97273.88;4933310;28;20255;-87
2023/08/08 05:50:49;;;;;;;2.28;1.73;;;;;;;15.12;68.49;97266.75;4950200;28;20212;-87
2023/08/08 05:53:15;;;;;;;2.95;2.20;;;;;;;15.29;68.81;97279.53;4919892;28;20266;-88
2023/08/08 05:55:42;;;;;;;2.33;1.88;;;;;;;15.44;68.11;97289.13;4971867;28;20287;-88
2023/08/08 05:58:07;;;;;;;2.30;1.85;;;;;;;15.54;68.49;97284.59;4919219;28;20545;-87
2023/08/08 06:00:33;;;;;;;3.17;2.13;;;;;;;15.69;67.70;97285.53;4944677;28;20190;-87
2023/08/08 06:02:58;;;;;;;2.67;1.90;;;;;;;15.67;68.07;97292.91;4965142;28;20256;-86
2023/08/08 06:05:24;;;;;;;1.77;1.38;;;;;;;15.72;68.08;97287.63;4946258;28;20427;-87
2023/08/08 06:07:50;;;;;;;3.70;1.58;;;;;;;15.73;67.92;97287.34;4956048;28;20173;-87
2023/08/08 06:10:15;;;;;;;2.35;1.88;;;;;;;15.94;67.98;97294.28;4937871;28;20215;-87
2023/08/08 06:12:40;;;;;;;3.53;1.73;;;;;;;15.97;66.39;97276.16;4955959;28;20218;-87
2023/08/08 06:15:06;;;;;;;1.85;1.75;;;;;;;16.14;66.34;97280.97;4936658;28;20644;-87
2023/08/08 06:17:35;;;;;;;1.90;1.60;;;;;;;16.32;66.00;97297.13;4958026;28;20195;-87
2023/08/08 06:20:00;;;;;;;2.08;1.70;;;;;;;16.31;66.24;97279.78;4961611;28;20360;-87
2023/08/08 06:22:26;;;;;;;2.40;1.80;;;;;;;16.33;65.07;97281.06;4947647;28;20667;-87
2023/08/08 06:24:51;;;;;;;1.85;1.45;;;;;;;16.58;65.89;97301.03;4961543;28;20347;-88
2023/08/08 06:27:17;;;;;;;3.10;1.73;;;;;;;16.69;64.77;97293.81;4937684;28;20717;-87
2023/08/08 06:29:42;;;;;;;4.50;1.80;;;;;;;16.62;64.66;97264.44;4958928;28;20277;-86
2023/08/08 06:32:08;;;;;;;2.83;1.48;;;;;;;16.88;64.84;97288.63;4936186;28;20200;-88
2023/08/08 06:34:33;;;;;;;2.13;1.38;;;;;;;16.93;63.16;97288.56;4963974;28;20667;-87
2023/08/08 06:36:58;;;;;;;1.95;1.48;;;;;;;16.98;62.76;97285.06;4947755;28;20280;-87
2023/08/08 06:39:24;;;;;;;1.67;1.42;;;;;;;17.08;61.93;97282.31;4964193;28;20217;-86
2023/08/08 06:41:50;;;;;;;2.08;1.50;;;;;;;17.22;62.34;97288.44;4968111;28;20175;-87
2023/08/08 06:44:15;;;;;;;1.98;1.40;;;;;;;17.41;62.33;97279.78;4953916;28;20271;-86
2023/08/08 06:46:41;;;;;;;3.42;1.48;;;;;;;17.44;59.71;97262.59;4951002;28;20550;-87
2023/08/08 06:49:07;;;;;;;3.45;2.17;;;;;;;17.62;59.44;97280.25;4962653;28;20238;-86
2023/08/08 06:51:32;;;;;;;3.35;1.13;;;;;;;17.68;60.31;97273.81;4953488;28;20222;-87
2023/08/08 06:53:58;;;;;;;2.38;1.30;;;;;;;17.72;59.45;97269.53;4933531;28;20276;-87
2023/08/08 06:56:23;;;;;;;1.10;1.00;;;;;;;17.92;59.93;97286.09;4963659;28;20277;-88
2023/08/08 06:58:48;;;;;;;2.25;1.73;;;;;;;17.90;57.20;97259.28;4972068;28;20182;-86
2023/08/08 07:01:14;;;;;;;2.10;1.40;;;;;;;18.17;56.41;97289.38;4946881;28;20199;-89
2023/08/08 07:03:40;;;;;;;2.20;1.20;;;;;;;18.25;55.96;97284.22;4933837;28;20127;-88
2023/08/08 07:06:05;;;;;;;2.65;1.27;;;;;;;18.25;56.03;97270.25;4949742;28;20291;-88
2023/08/08 07:08:32;;;;;;;1.60;1.17;;;;;;;18.29;55.12;97279.16;4941789;28;20218;-88
2023/08/08 07:10:57;;;;;;;1.80;1.25;;;;;;;18.48;55.24;97284.34;4952042;28;20490;-88
2023/08/08 07:13:23;;;;;;;1.67;1.38;;;;;;;18.33;55.07;97269.56;4949284;28;20197;-89
2023/08/08 07:15:49;;;;;;;1.30;0.93;;;;;;;18.64;54.13;97277.69;4956283;28;20246;-88
2023/08/08 07:18:14;;;;;;;2.55;1.45;;;;;;;18.61;53.78;97280.94;4952119;28;20297;-88
2023/08/08 07:20:40;;;;;;;2.28;1.00;;;;;;;18.67;54.40;97271.03;4940096;28;20190;-88
2023/08/08 07:23:05;;;;;;;2.30;1.20;;;;;;;18.76;54.02;97274.53;4964131;28;20075;-87
2023/08/08 07:25:31;;;;;;;2.47;1.30;;;;;;;18.93;54.95;97267.91;4971761;28;20250;-89
2023/08/08 07:27:56;;;;;;;2.03;1.08;;;;;;;19.02;53.51;97276.69;4955448;28;20048;-87
2023/08/08 07:30:21;;;;;;;1.90;1.52;;;;;;;19.01;54.64;97281.19;4953431;28;20105;-89
2023/08/08 07:32:48;;;;;;;2.85;1.30;;;;;;;19.09;53.69;97282.38;4954089;28;20275;-88
2023/08/08 07:35:15;;;;;;;2.60;1.20;;;;;;;19.17;53.16;97279.00;4952628;28;20214;-88
2023/08/08 07:37:40;;;;;;;2.25;1.00;;;;;;;19.33;52.66;97282.09;4946152;28;20263;-88
2023/08/08 07:40:20;;;;;;;2.35;1.10;;;;;;;19.40;52.38;97282.47;4940962;28;20149;-88
2023/08/08 07:42:49;;;;;;;2.30;1.52;;;;;;;19.31;51.83;97288.75;4950470;28;20192;-88
2023/08/08 07:45:15;;;;;;;1.98;1.20;;;;;;;19.51;52.12;97288.28;4946333;28;20680;-87
2023/08/08 07:47:40;;;;;;;3.08;1.40;;;;;;;19.49;51.01;97290.44;4941746;28;20183;-88
2023/08/08 07:50:09;;;;;;;1.90;1.40;;;;;;;19.66;51.55;97279.22;4934589;28;20321;-89
2023/08/08 07:52:35;;;;;;;1.52;0.90;;;;;;;19.65;50.56;97281.09;4940720;28;20227;-86
2023/08/08 07:55:01;;;;;;;2.28;1.25;;;;;;;19.37;50.00;97261.94;4952316;28;20330;-87
2023/08/08 07:57:26;;;;;;;1.95;1.20;;;;;;;19.37;50.49;97277.00;4956219;28;20217;-87
2023/08/08 07:59:52;;;;;;;2.58;1.25;;;;;;;19.45;50.77;97286.84;4971535;28;20203;-88
2023/08/08 08:02:17;;;;;;;1.65;1.05;;;;;;;19.47;49.61;97260.94;4959544;28;20190;-87
2023/08/08 08:04:43;;;;;;;2.40;0.93;;;;;;;19.65;50.85;97277.66;4957793;28;20203;-89
2023/08/08 08:07:08;;;;;;;3.25;1.30;;;;;;;19.74;50.14;97280.34;4943416;28;20190;-88
2023/08/08 08:09:33;;;;;;;1.58;1.05;;;;;;;19.91;49.36;97280.53;4953776;28;20200;-87
2023/08/08 08:11:59;;;;;;;2.75;1.00;;;;;;;19.89;48.70;97266.03;4963537;28;20259;-88
2023/08/08 08:14:24;;;;;;;1.15;0.95;;;;;;;19.91;48.32;97262.03;4945140;28;20345;-88
2023/08/08 08:16:50;;;;;;;1.85;1.38;;;;;;;20.18;49.77;97284.84;4956309;28;20199;-87
2023/08/08 08:19:15;;;;;;;2.30;0.85;;;;;;;20.39;47.04;97282.44;4961036;28;20187;-88
2023/08/08 08:21:41;;;;;;;1.75;1.00;;;;;;;20.47;46.43;97269.56;4971820;28;20756;-87
2023/08/08 08:24:06;;;;;;;1.35;1.15;;;;;;;20.73;46.35;97280.25;4958213;28;20032;-89
2023/08/08 08:26:32;;;;;;;2.72;0.98;;;;;;;20.87;47.87;97277.47;4968035;28;20040;-88
2023/08/08 08:28:57;;;;;;;2.08;1.10;;;;;;;20.82;45.18;97273.13;4957530;28;20430;-87
2023/08/08 08:31:23;;;;;;;1.08;0.80;;;;;;;20.77;44.84;97267.97;4962332;28;20039;-88
2023/08/08 08:33:48;;;;;;;1.02;0.73;;;;;;;20.76;44.52;97261.88;4964827;28;20233;-87
2023/08/08 08:36:13;;;;;;;1.92;1.10;;;;;;;20.81;47.56;97274.19;4954721;28;20242;-87
2023/08/08 08:38:39;;;;;;;2.45;1.08;;;;;;;21.04;46.22;97274.88;4966537;28;20240;-87
2023/08/08 08:41:04;;;;;;;1.17;0.88;;;;;;;21.05;45.62;97267.69;4994633;22;20195;-87
2023/08/08 08:43:30;;;;;;;1.27;0.80;;;;;;;21.25;44.49;97263.63;4932263;28;20158;-88
2023/08/08 08:45:59;;;;;;;1.60;0.98;;;;;;;21.20;44.31;97256.66;4937761;28;20638;-88
2023/08/08 08:48:25;;;;;;;1.83;1.08;;;;;;;21.22;43.83;97246.53;4934270;28;20181;-88
2023/08/08 08:50:51;;;;;;;1.30;0.90;;;;;;;21.50;42.65;97268.19;4939776;28;20242;-88
2023/08/08 08:53:17;;;;;;;2.45;0.98;;;;;;;21.45;42.97;97257.72;4937438;28;20244;-88
2023/08/08 08:55:43;;;;;;;3.08;0.93;;;;;;;21.57;41.65;97259.00;4954923;28;20084;-88
2023/08/08 08:58:09;;;;;;;2.85;0.95;;;;;;;21.63;43.87;97252.44;4927030;28;20174;-88
2023/08/08 09:00:35;;;;;;;1.58;1.08;;;;;;;21.79;41.53;97258.78;4941810;28;20098;-87
2023/08/08 09:03:00;;;;;;;1.52;1.10;;;;;;;21.61;43.23;97225.47;4927719;28;20009;-87
2023/08/08 09:05:26;;;;;;;2.17;1.13;;;;;;;21.76;41.79;97232.91;4955659;28;20285;-86
2023/08/08 09:07:51;;;;;;;1.55;0.95;;;;;;;21.77;43.48;97252.25;4937564;28;20222;-89
2023/08/08 09:10:18;;;;;;;1.60;1.08;;;;;;;21.88;41.10;97219.81;4957325;28;20211;-89
2023/08/08 09:12:44;;;;;;;1.42;1.10;;;;;;;22.28;39.23;97233.84;4954339;28;20217;-85
2023/08/08 09:15:10;;;;;;;4.05;1.27;;;;;;;22.17;43.51;97252.75;4946229;28;20619;-87
2023/08/08 09:17:36;;;;;;;2.75;1.10;;;;;;;22.32;40.23;97259.44;4934650;28;20677;-87
2023/08/08 09:20:02;;;;;;;1.83;1.15;;;;;;;22.15;42.10;97254.19;4974991;28;20271;-88
2023/08/08 09:22:28;;;;;;;2.10;1.30;;;;;;;22.12;38.91;97254.81;4925162;28;20189;-88
2023/08/08 09:24:54;;;;;;;2.95;1.35;;;;;;;22.16;41.95;97261.06;4931019;28;20189;-90
2023/08/08 09:27:20;;;;;;;2.42;1.23;;;;;;;22.15;42.22;97228.44;4943663;28;20254;-88
2023/08/08 09:29:46;;;;;;;1.75;1.23;;;;;;;22.15;41.10;97254.19;4956467;28;20270;-88
2023/08/08 09:32:12;;;;;;;37.35;4.75;;;;;;;22.30;42.68;97258.97;4920230;28;20391;-88
2023/08/08 09:34:41;;;;;;;100.47;12.10;;;;;;;22.33;40.99;97254.91;4927044;28;20229;-90
2023/08/08 09:37:06;;;;;;;1.42;0.85;;;;;;;22.35;41.91;97258.81;4921916;28;20153;-87
2023/08/08 09:39:32;;;;;;;2.13;1.25;;;;;;;22.48;40.11;97245.63;4914830;28;20201;-88
2023/08/08 09:41:57;;;;;;;2.72;1.40;;;;;;;22.61;43.01;97260.56;4943960;28;20636;-88
2023/08/08 09:44:24;;;;;;;1.33;1.10;;;;;;;23.00;41.31;97255.94;4930239;28;20889;-89
2023/08/08 09:46:50;;;;;;;2.17;1.13;;;;;;;22.91;39.59;97248.03;4920860;28;20215;-89
2023/08/08 09:49:15;;;;;;;1.38;1.27;;;;;;;22.76;39.58;97230.03;4943107;28;20215;-86
2023/08/08 09:51:41;;;;;;;2.58;1.05;;;;;;;22.88;39.64;97237.28;4940150;28;20114;-86
2023/08/08 09:54:07;;;;;;;1.83;1.33;;;;;;;22.87;39.35;97230.41;4927636;28;20224;-88
2023/08/08 09:56:34;;;;;;;2.75;1.30;;;;;;;23.03;41.21;97241.22;4944930;28;20347;-87
2023/08/08 09:59:00;;;;;;;1.65;1.30;;;;;;;23.16;39.03;97248.19;4946281;28;20692;-87
2023/08/08 10:01:26;;;;;;;1.83;1.25;;;;;;;23.33;38.56;97248.03;4942877;28;20165;-88
2023/08/08 10:03:52;;;;;;;1.85;1.25;;;;;;;23.14;38.16;97234.47;4950466;28;20129;-89
2023/08/08 10:06:18;;;;;;;1.20;1.10;;;;;;;23.29;38.52;97243.72;4937535;28;20358;-87
2023/08/08 10:08:44;;;;;;;2.45;1.30;;;;;;;23.24;37.04;97239.38;4919885;28;20174;-89
2023/08/08 10:11:14;;;;;;;1.60;1.20;;;;;;;22.98;38.04;97240.34;4927721;28;20272;-86
2023/08/08 10:13:47;;;;;;;1.30;1.20;;;;;;;22.98;40.49;97232.38;4927811;28;20236;-88
2023/08/08 10:16:16;;;;;;;1.70;1.10;;;;;;;23.12;39.17;97228.72;4937364;28;20303;-88
2023/08/08 10:18:41;;;;;;;2.53;1.25;;;;;;;22.90;41.32;97238.50;4938783;28;20252;-87
2023/08/08 10:21:09;;;;;;;1.30;1.20;;;;;;;23.25;40.96;97235.59;4934041;28;20102;-88
2023/08/08 10:23:39;;;;;;;1.88;0.90;;;;;;;23.17;38.33;97202.72;4939235;28;20243;-87
2023/08/08 10:26:16;;;;;;;2.50;1.25;;;;;;;23.33;37.12;97215.41;4922152;28;20230;-87
2023/08/08 10:28:52;;;;;;;1.48;1.08;;;;;;;23.67;39.04;97230.22;4925908;28;20304;-87
2023/08/08 10:31:19;;;;;;;1.83;1.20;;;;;;;23.50;38.47;97203.81;4938374;28;20192;-87
2023/08/08 10:33:47;;;;;;;1.20;1.00;;;;;;;23.38;38.06;97229.25;4922783;28;20716;-87
2023/08/08 10:36:13;;;;;;;1.13;0.90;;;;;;;23.40;39.30;97239.56;4966635;28;20057;-87
2023/08/08 10:38:48;;;;;;;1.38;1.10;;;;;;;23.59;37.78;97225.00;4922466;28;20075;-86
2023/08/08 10:41:22;;;;;;;;;;;;;;;23.82;37.75;97230.72;4954107;28;20160;-87
2023/08/08 10:43:53;;;;;;;1.98;0.98;;;;;;;23.55;35.32;97236.28;4936457;28;20080;-89
2023/08/08 10:46:30;;;;;;;1.38;1.08;;;;;;;23.56;36.33;97234.38;4962138;28;20145;-88
2023/08/08 10:49:01;;;;;;;1.45;1.20;;;;;;;23.65;35.03;97221.03;4950700;28;20406;-84
2023/08/08 10:51:38;;;;;;;2.35;1.38;;;;;;;23.33;34.81;97232.09;4964755;28;20642;-89
2023/08/08 10:54:13;;;;;;;1.98;1.25;;;;;;;23.29;35.46;97228.56;4932039;28;20191;-89
2023/08/08 10:56:38;;;;;;;1.83;1.00;;;;;;;23.50;36.46;97235.72;4937533;28;20240;-88
2023/08/08 10:59:14;;;;;;;1.83;1.00;;;;;;;23.47;35.57;97221.19;4957322;28;20207;-88
2023/08/08 11:01:40;;;;;;;1.65;1.02;;;;;;;23.21;36.05;97218.00;4925425;28;20215;-87
2023/08/08 11:04:06;;;;;;;1.00;0.93;;;;;;;23.51;34.70;97235.41;4949479;28;20775;-86
2023/08/08 11:06:32;;;;;;;1.65;1.10;;;;;;;23.75;33.33;97234.69;4943352;28;20277;-86
2023/08/08 11:08:58;;;;;;;0.93;0.93;;;;;;;23.53;35.02;97213.81;4967166;28;20197;-88
2023/08/08 11:11:23;;;;;;;1.95;1.15;;;;;;;23.28;34.89;97232.31;4966382;28;20199;-88
2023/08/08 11:13:51;;;;;;;1.63;1.02;;;;;;;23.47;35.76;97220.41;4953918;28;20233;-86
2023/08/08 11:16:16;;;;;;;2.78;1.60;;;;;;;23.27;33.76;97204.19;4958148;28;20048;-88
2023/08/08 11:18:43;;;;;;;1.50;1.40;;;;;;;23.24;36.76;97215.47;4959137;28;20018;-87
2023/08/08 11:21:11;;;;;;;1.58;1.33;;;;;;;23.37;38.14;97205.66;4983950;28;20044;-89
2023/08/08 11:23:38;;;;;;;1.88;0.80;;;;;;;23.28;39.32;97202.31;4982811;28;20041;-88
2023/08/08 11:26:04;;;;;;;1.15;0.95;;;;;;;23.24;35.20;97215.47;4974762;28;20014;-89
2023/08/08 11:28:29;;;;;;;4.78;1.27;;;;;;;23.13;34.53;97204.47;4965060;28;20033;-88
2023/08/08 11:30:55;;;;;;;2.85;1.20;;;;;;;23.08;36.14;97225.94;4937983;28;20041;-85